Terminal Aerodrome Forecast
Issued by NWS

Home | Current Version | Previous Version | Text Only | Print | Product List | Glossary On
Versions: 1 2 3 4 5 6 7 8 9 10 11 12 13 14 15 16 17 18 19 20 21
827
FTUS46 KLOX 242107 AAA
TAFBUR
TAF AMD
KBUR 242107Z 2421/2518 17004KT P6SM OVC017
     FM242300 18007KT P6SM SCT018 OVC025
     FM250000 17008KT P6SM SCT025 OVC035
     FM250800 15005KT P6SM SCT015 OVC025=

USA.gov is the U.S. government's official web portal to all federal, state and local government web resources and services.